createdAt,value
2019-05-16T00:01:14.816Z,48.73
2019-05-16T00:03:40.901Z,48.73
2019-05-16T00:06:08.562Z,48.73
2019-05-16T00:08:34.652Z,48.77
2019-05-16T00:11:00.732Z,48.89
2019-05-16T00:13:28.016Z,48.89
2019-05-16T00:15:54.157Z,48.90
2019-05-16T00:18:20.311Z,48.83
2019-05-16T00:20:46.258Z,48.92
2019-05-16T00:23:12.272Z,48.92
2019-05-16T00:25:38.665Z,48.87
2019-05-16T00:28:05.191Z,49.02
2019-05-16T00:30:31.193Z,49.19
2019-05-16T00:32:58.814Z,49.28
2019-05-16T00:35:24.833Z,49.67
2019-05-16T00:37:50.827Z,49.72
2019-05-16T00:40:18.821Z,49.56
2019-05-16T00:42:44.855Z,49.70
2019-05-16T00:45:13.296Z,49.79
2019-05-16T00:47:39.181Z,49.80
2019-05-16T00:50:05.304Z,49.86
2019-05-16T00:52:31.295Z,50.13
2019-05-16T00:54:57.972Z,50.02
2019-05-16T00:57:24.599Z,49.96
2019-05-16T00:59:50.797Z,50.03
2019-05-16T01:02:18.156Z,50.16
2019-05-16T01:04:44.100Z,50.11
2019-05-16T01:07:10.083Z,50.16
2019-05-16T01:09:38.420Z,50.18
2019-05-16T01:12:03.953Z,50.00
2019-05-16T01:14:29.845Z,49.98
2019-05-16T01:16:58.000Z,49.92
2019-05-16T01:19:23.769Z,50.03
2019-05-16T01:21:49.751Z,49.89
2019-05-16T01:24:15.785Z,49.97
2019-05-16T01:26:41.735Z,49.92
2019-05-16T01:29:08.545Z,49.87
2019-05-16T01:31:37.848Z,49.86
2019-05-16T01:34:03.292Z,50.01
2019-05-16T01:36:36.791Z,50.10
2019-05-16T01:38:58.462Z,49.97
2019-05-16T01:41:24.463Z,49.95
2019-05-16T01:43:50.346Z,50.27
2019-05-16T01:46:18.103Z,50.17
2019-05-16T01:48:44.184Z,50.26
2019-05-16T01:51:10.183Z,50.33
2019-05-16T01:53:36.215Z,50.41
2019-05-16T01:56:02.187Z,50.42
2019-05-16T01:58:28.996Z,50.38
2019-05-16T02:01:05.471Z,50.39
2019-05-16T02:03:22.998Z,50.36
2019-05-16T02:05:48.894Z,50.37
2019-05-16T02:08:14.922Z,50.34
2019-05-16T02:10:40.907Z,50.26
2019-05-16T02:13:08.486Z,50.21
2019-05-16T02:15:34.712Z,50.11
2019-05-16T02:18:00.669Z,50.07
2019-05-16T02:20:28.251Z,50.00
2019-05-16T02:22:54.330Z,49.92
2019-05-16T02:25:20.316Z,49.92
2019-05-16T02:27:48.634Z,49.91
2019-05-16T02:30:14.209Z,49.90
2019-05-16T02:32:41.727Z,50.00
2019-05-16T02:35:11.222Z,50.03
2019-05-16T02:37:35.845Z,50.03
2019-05-16T02:40:02.823Z,50.01
2019-05-16T02:42:31.108Z,50.09
2019-05-16T02:44:56.652Z,50.02
2019-05-16T02:47:22.622Z,50.05
2019-05-16T02:49:50.466Z,50.12
2019-05-16T02:52:16.450Z,50.17
2019-05-16T02:54:42.309Z,50.17
2019-05-16T02:57:11.293Z,50.15
2019-05-16T02:59:36.149Z,50.18
2019-05-16T03:02:02.110Z,50.21
2019-05-16T03:04:30.560Z,50.19
2019-05-16T03:06:56.035Z,50.25
2019-05-16T03:09:22.108Z,50.22
2019-05-16T03:11:50.988Z,50.20
2019-05-16T03:14:21.206Z,50.18
2019-05-16T03:16:50.420Z,50.03
2019-05-16T03:19:17.046Z,50.03
2019-05-16T03:21:43.511Z,50.05
2019-05-16T03:24:11.282Z,50.03
2019-05-16T03:26:40.695Z,49.96
2019-05-16T03:29:05.209Z,49.95
2019-05-16T03:31:34.070Z,50.01
2019-05-16T03:34:06.541Z,49.97
2019-05-16T03:36:26.661Z,49.79
2019-05-16T03:38:52.506Z,49.77
2019-05-16T03:41:21.333Z,49.87
2019-05-16T03:43:46.256Z,49.92
2019-05-16T03:46:12.274Z,49.91
2019-05-16T03:48:40.739Z,49.89
2019-05-16T03:51:06.056Z,49.87
2019-05-16T03:53:32.076Z,49.89
2019-05-16T03:55:58.033Z,49.88
2019-05-16T03:58:24.094Z,49.79
2019-05-16T04:00:52.589Z,49.90
2019-05-16T04:03:21.320Z,49.93
2019-05-16T04:05:47.749Z,49.87
2019-05-16T04:08:19.441Z,49.94
2019-05-16T04:10:41.882Z,49.80
2019-05-16T04:13:07.919Z,49.75
2019-05-16T04:15:33.863Z,49.73
2019-05-16T04:18:01.584Z,49.75
2019-05-16T04:20:30.480Z,49.72
2019-05-16T04:22:55.586Z,49.70
2019-05-16T04:25:21.855Z,49.64
2019-05-16T04:27:50.095Z,49.62
2019-05-16T04:30:15.652Z,49.71
2019-05-16T04:32:42.165Z,50.14
2019-05-16T04:35:11.303Z,49.88
2019-05-16T04:37:36.040Z,49.99
2019-05-16T04:40:02.412Z,49.86
2019-05-16T04:42:31.053Z,49.84
2019-05-16T04:45:00.806Z,49.69
2019-05-16T04:47:23.731Z,49.61
2019-05-16T04:49:51.950Z,49.43
2019-05-16T04:52:17.435Z,49.38
2019-05-16T04:54:43.327Z,49.40
2019-05-16T04:57:11.952Z,49.46
2019-05-16T04:59:37.199Z,49.52
2019-05-16T05:02:03.192Z,49.75
2019-05-16T05:04:30.699Z,49.56
2019-05-16T05:06:56.704Z,49.61
2019-05-16T05:09:22.631Z,49.69
2019-05-16T05:11:51.702Z,49.65
2019-05-16T05:14:16.321Z,49.74
2019-05-16T05:16:42.205Z,49.68
2019-05-16T05:19:10.944Z,49.58
2019-05-16T05:21:36.030Z,49.57
2019-05-16T05:24:01.860Z,49.74
2019-05-16T05:26:30.422Z,49.71
2019-05-16T05:28:55.813Z,49.51
2019-05-16T05:31:24.776Z,49.34
2019-05-16T05:33:50.675Z,49.31
2019-05-16T05:36:16.646Z,49.37
2019-05-16T05:38:42.508Z,49.23
2019-05-16T05:41:10.566Z,49.13
2019-05-16T05:43:36.211Z,49.14
2019-05-16T05:46:02.089Z,49.21
2019-05-16T05:48:30.519Z,49.16
2019-05-16T05:50:55.837Z,49.07
2019-05-16T05:53:21.730Z,49.02
2019-05-16T05:55:50.673Z,49.02
2019-05-16T05:58:15.655Z,48.93
2019-05-16T06:00:41.929Z,48.91
2019-05-16T06:03:07.986Z,48.89
2019-05-16T06:05:33.970Z,48.83
2019-05-16T06:08:00.322Z,48.78
2019-05-16T06:10:26.347Z,48.76
2019-05-16T06:12:52.232Z,48.70
2019-05-16T06:15:20.246Z,48.63
2019-05-16T06:17:46.361Z,48.61
2019-05-16T06:20:14.531Z,48.56
2019-05-16T06:22:40.390Z,48.46
2019-05-16T06:25:06.557Z,48.41
2019-05-16T06:27:32.423Z,48.37
2019-05-16T06:30:00.488Z,48.32
2019-05-16T06:32:26.167Z,48.24
2019-05-16T06:34:52.074Z,48.00
2019-05-16T06:37:20.306Z,47.93
2019-05-16T06:39:45.720Z,47.80
2019-05-16T06:42:11.702Z,47.78
2019-05-16T06:44:39.959Z,47.52
2019-05-16T06:47:16.797Z,47.60
2019-05-16T06:49:33.188Z,47.44
2019-05-16T06:51:59.719Z,47.42
2019-05-16T06:54:25.823Z,47.03
2019-05-16T06:56:51.827Z,46.92
2019-05-16T06:59:17.718Z,46.45
2019-05-16T07:01:43.755Z,45.73
2019-05-16T07:04:10.423Z,45.81
2019-05-16T07:06:51.780Z,45.89
2019-05-16T07:09:05.439Z,45.93
2019-05-16T07:11:31.387Z,45.96
2019-05-16T07:13:57.239Z,46.11
2019-05-16T07:16:23.250Z,46.25
2019-05-16T07:18:50.570Z,46.13
2019-05-16T07:21:16.714Z,46.16
2019-05-16T07:23:42.987Z,45.52
2019-05-16T07:26:09.861Z,45.70
2019-05-16T07:28:36.267Z,45.84
2019-05-16T07:31:14.483Z,45.46
2019-05-16T07:33:31.157Z,45.60
2019-05-16T07:35:57.260Z,45.39
2019-05-16T07:38:23.342Z,45.42
2019-05-16T07:40:51.180Z,45.10
2019-05-16T07:43:17.133Z,45.44
2019-05-16T07:45:44.224Z,45.12
2019-05-16T07:48:10.750Z,45.07
2019-05-16T07:50:36.760Z,45.24
2019-05-16T07:53:02.919Z,44.83
2019-05-16T07:55:30.722Z,44.31
2019-05-16T07:57:56.694Z,44.63
2019-05-16T08:00:43.419Z,44.42
2019-05-16T08:02:50.727Z,44.73
2019-05-16T08:05:16.778Z,44.55
2019-05-16T08:07:42.864Z,44.48
2019-05-16T08:10:10.612Z,44.31
2019-05-16T08:12:36.915Z,44.50
2019-05-16T08:15:03.993Z,44.18
2019-05-16T08:17:31.449Z,44.14
2019-05-16T08:19:59.866Z,44.36
2019-05-16T08:22:25.623Z,44.45
2019-05-16T08:24:51.482Z,44.51
2019-05-16T08:27:20.588Z,44.56
2019-05-16T08:29:45.284Z,44.45
2019-05-16T08:32:11.682Z,44.21
2019-05-16T08:34:40.806Z,44.11
2019-05-16T08:37:05.397Z,43.97
2019-05-16T08:39:31.385Z,44.02
2019-05-16T08:42:07.030Z,43.63
2019-05-16T08:44:25.143Z,43.58
2019-05-16T08:46:57.031Z,43.38
2019-05-16T08:49:22.208Z,43.56
2019-05-16T08:51:46.582Z,43.40
2019-05-16T08:54:13.449Z,42.58
2019-05-16T08:56:45.557Z,42.42
2019-05-16T08:59:07.295Z,42.08
2019-05-16T09:01:35.115Z,42.59
2019-05-16T09:04:01.605Z,42.72
2019-05-16T09:06:31.654Z,42.74
2019-05-16T09:08:59.584Z,42.97
2019-05-16T09:11:35.756Z,42.88
2019-05-16T09:13:51.046Z,42.83
2019-05-16T09:16:18.307Z,42.75
2019-05-16T09:18:45.824Z,42.70
2019-05-16T09:21:12.005Z,42.85
2019-05-16T09:23:38.342Z,42.08
2019-05-16T09:26:07.187Z,41.39
2019-05-16T09:28:32.352Z,41.30
2019-05-16T09:30:58.328Z,41.02
2019-05-16T09:33:26.767Z,41.00
2019-05-16T09:35:52.175Z,40.84
2019-05-16T09:38:23.448Z,41.11
2019-05-16T09:40:47.818Z,40.78
2019-05-16T09:43:13.579Z,40.68
2019-05-16T09:45:39.578Z,39.66
2019-05-16T09:48:08.103Z,38.63
2019-05-16T09:50:33.762Z,38.68
2019-05-16T09:52:59.606Z,38.90
2019-05-16T09:55:26.874Z,39.04
2019-05-16T09:57:55.006Z,39.45
2019-05-16T10:00:22.626Z,38.98
2019-05-16T10:02:48.611Z,38.33
2019-05-16T10:05:16.919Z,38.06
2019-05-16T10:07:43.041Z,37.88
2019-05-16T10:10:09.195Z,37.97
2019-05-16T10:12:37.117Z,37.19
2019-05-16T10:15:04.047Z,37.54
2019-05-16T10:17:29.922Z,37.25
2019-05-16T10:19:56.532Z,36.72
2019-05-16T10:22:23.907Z,36.12
2019-05-16T10:24:49.856Z,36.29
2019-05-16T10:27:17.208Z,36.65
2019-05-16T10:29:43.331Z,37.01
2019-05-16T10:32:09.391Z,37.58
2019-05-16T10:34:37.087Z,36.98
2019-05-16T10:37:03.185Z,37.37
2019-05-16T10:39:29.412Z,37.52
2019-05-16T10:41:57.420Z,37.41
2019-05-16T10:44:23.254Z,37.40
2019-05-16T10:46:49.113Z,36.92
2019-05-16T10:49:25.538Z,37.46
2019-05-16T10:51:47.013Z,37.03
2019-05-16T10:54:14.325Z,36.49
2019-05-16T10:56:40.712Z,37.08
2019-05-16T10:59:46.754Z,35.95
2019-05-16T11:01:36.569Z,35.69
2019-05-16T11:04:02.307Z,35.76
2019-05-16T11:06:29.249Z,36.13
2019-05-16T11:08:57.128Z,35.47
2019-05-16T11:11:23.255Z,35.82
2019-05-16T11:13:51.069Z,35.10
2019-05-16T11:16:17.426Z,35.64
2019-05-16T11:18:43.579Z,35.81
2019-05-16T11:21:09.580Z,35.65
2019-05-16T11:23:36.745Z,35.47
2019-05-16T11:26:02.962Z,36.03
2019-05-16T11:28:28.876Z,34.96
2019-05-16T11:30:59.667Z,35.40
2019-05-16T11:33:22.633Z,35.38
2019-05-16T11:35:48.495Z,35.06
2019-05-16T11:38:17.549Z,35.20
2019-05-16T11:40:42.513Z,35.06
2019-05-16T11:43:17.423Z,35.27
2019-05-16T11:45:36.784Z,34.87
2019-05-16T11:48:03.035Z,34.87
2019-05-16T11:50:29.016Z,35.14
2019-05-16T11:52:56.925Z,34.52
2019-05-16T11:55:22.815Z,34.44
2019-05-16T11:57:48.781Z,34.37
2019-05-16T12:00:17.922Z,34.57
2019-05-16T12:02:43.539Z,34.24
2019-05-16T12:05:09.725Z,34.03
2019-05-16T12:07:43.742Z,33.91
2019-05-16T12:10:07.592Z,34.27
2019-05-16T12:12:33.610Z,33.71
2019-05-16T12:14:59.523Z,34.03
2019-05-16T12:17:27.967Z,34.07
2019-05-16T12:19:53.252Z,34.29
2019-05-16T12:22:19.203Z,33.57
2019-05-16T12:24:47.573Z,33.25
2019-05-16T12:27:12.884Z,33.68
2019-05-16T12:29:38.769Z,34.04
2019-05-16T12:32:07.212Z,34.17
2019-05-16T12:34:32.525Z,34.16
2019-05-16T12:36:58.519Z,33.87
2019-05-16T12:39:26.752Z,34.03
2019-05-16T12:41:52.279Z,34.44
2019-05-16T12:44:18.153Z,34.50
2019-05-16T12:46:44.229Z,34.17
2019-05-16T12:49:10.078Z,33.52
2019-05-16T12:51:36.993Z,34.07
2019-05-16T12:54:03.229Z,33.73
2019-05-16T12:56:29.194Z,34.01
2019-05-16T12:58:55.047Z,34.17
2019-05-16T13:01:21.592Z,34.21
2019-05-16T13:03:48.170Z,34.11
2019-05-16T13:06:14.097Z,33.66
2019-05-16T13:08:40.161Z,33.87
2019-05-16T13:11:07.181Z,33.63
2019-05-16T13:13:33.410Z,33.76
2019-05-16T13:15:59.529Z,33.85
2019-05-16T13:18:27.520Z,34.36
2019-05-16T13:20:53.027Z,34.25
2019-05-16T13:23:19.099Z,34.30
2019-05-16T13:25:47.852Z,34.31
2019-05-16T13:28:12.850Z,34.04
2019-05-16T13:30:38.938Z,34.39
2019-05-16T13:33:07.010Z,34.36
2019-05-16T13:35:32.584Z,34.31
2019-05-16T13:37:58.656Z,34.44
2019-05-16T13:40:24.504Z,34.25
2019-05-16T13:42:50.372Z,34.49
2019-05-16T13:45:17.857Z,34.71
2019-05-16T13:47:44.061Z,34.75
2019-05-16T13:50:12.200Z,34.80
2019-05-16T13:52:38.079Z,35.13
2019-05-16T13:55:06.896Z,34.76
2019-05-16T13:57:32.507Z,34.91
2019-05-16T13:59:59.597Z,35.07
2019-05-16T14:02:26.692Z,35.06
2019-05-16T14:04:52.626Z,34.84
2019-05-16T14:07:18.639Z,34.78
2019-05-16T14:09:46.962Z,34.98
2019-05-16T14:12:12.382Z,35.10
2019-05-16T14:14:42.366Z,35.10
2019-05-16T14:17:14.170Z,34.90
2019-05-16T14:19:33.853Z,35.13
2019-05-16T14:21:59.955Z,35.34
2019-05-16T14:24:28.207Z,35.31
2019-05-16T14:26:53.491Z,35.51
2019-05-16T14:29:19.650Z,35.56
2019-05-16T14:31:46.925Z,35.83
2019-05-16T14:34:13.040Z,35.71
2019-05-16T14:36:40.983Z,35.79
2019-05-16T14:39:06.952Z,35.79
2019-05-16T14:41:32.809Z,35.73
2019-05-16T14:43:59.000Z,35.97
2019-05-16T14:46:27.228Z,36.09
2019-05-16T14:48:52.592Z,36.01
2019-05-16T14:51:18.591Z,36.09
2019-05-16T14:53:46.904Z,36.25
2019-05-16T14:56:12.224Z,36.18
2019-05-16T14:58:38.401Z,36.20
2019-05-16T15:01:04.261Z,36.36
2019-05-16T15:03:30.148Z,36.50
2019-05-16T15:05:58.781Z,36.48
2019-05-16T15:08:23.826Z,36.47
2019-05-16T15:10:49.653Z,36.28
2019-05-16T15:13:17.454Z,36.15
2019-05-16T15:15:43.533Z,36.08
2019-05-16T15:18:09.543Z,36.05
2019-05-16T15:20:35.608Z,36.10
2019-05-16T15:23:01.529Z,36.20
2019-05-16T15:25:27.516Z,36.12
2019-05-16T15:27:53.633Z,36.28
2019-05-16T15:30:21.397Z,36.25
2019-05-16T15:32:48.435Z,36.22
2019-05-16T15:35:17.788Z,36.06
2019-05-16T15:37:43.093Z,36.09
2019-05-16T15:40:09.377Z,36.06
2019-05-16T15:42:37.352Z,35.97
2019-05-16T15:45:06.960Z,35.98
2019-05-16T15:47:32.791Z,35.65
2019-05-16T15:49:59.792Z,35.48
2019-05-16T15:52:27.461Z,35.67
2019-05-16T15:54:54.161Z,35.42
2019-05-16T15:57:20.214Z,35.30
2019-05-16T15:59:46.968Z,35.61
2019-05-16T16:02:12.982Z,35.87
2019-05-16T16:04:38.936Z,35.82
2019-05-16T16:07:07.613Z,36.05
2019-05-16T16:09:32.631Z,36.17
2019-05-16T16:12:01.031Z,36.45
2019-05-16T16:14:27.507Z,36.48
2019-05-16T16:16:53.601Z,36.67
2019-05-16T16:19:19.656Z,36.77
2019-05-16T16:21:47.294Z,37.02
2019-05-16T16:24:13.235Z,37.13
2019-05-16T16:26:39.194Z,37.16
2019-05-16T16:29:07.335Z,37.12
2019-05-16T16:31:32.961Z,36.92
2019-05-16T16:33:58.963Z,37.22
2019-05-16T16:36:27.187Z,37.32
2019-05-16T16:38:52.555Z,37.45
2019-05-16T16:41:18.511Z,37.47
2019-05-16T16:43:44.355Z,37.65
2019-05-16T16:46:13.528Z,37.74
2019-05-16T16:48:38.155Z,37.84
2019-05-16T16:51:06.364Z,37.84
2019-05-16T16:53:31.825Z,37.87
2019-05-16T16:55:58.089Z,38.04
2019-05-16T16:58:26.415Z,38.10
2019-05-16T17:00:51.853Z,38.09
2019-05-16T17:03:17.894Z,38.14
2019-05-16T17:05:43.780Z,38.28
2019-05-16T17:08:09.676Z,38.47
2019-05-16T17:10:37.973Z,38.60
2019-05-16T17:13:03.485Z,38.69
2019-05-16T17:15:29.474Z,38.59
2019-05-16T17:17:57.434Z,38.77
2019-05-16T17:20:23.206Z,38.96
2019-05-16T17:22:49.195Z,39.02
2019-05-16T17:25:15.237Z,39.12
2019-05-16T17:27:41.089Z,39.20
2019-05-16T17:30:16.996Z,39.10
2019-05-16T17:32:42.794Z,39.25
2019-05-16T17:35:08.761Z,39.34
2019-05-16T17:37:37.290Z,39.38
2019-05-16T17:40:03.075Z,39.30
2019-05-16T17:42:28.923Z,39.20
2019-05-16T17:44:56.567Z,39.37
2019-05-16T17:47:22.607Z,39.47
2019-05-16T17:49:48.465Z,39.26
2019-05-16T17:52:16.482Z,39.58
2019-05-16T17:54:42.361Z,39.38
2019-05-16T17:57:08.251Z,39.51
2019-05-16T17:59:34.264Z,39.54
2019-05-16T18:02:00.373Z,39.61
2019-05-16T18:04:28.174Z,39.63
2019-05-16T18:06:57.510Z,39.76
2019-05-16T18:09:22.021Z,39.87
2019-05-16T18:11:47.865Z,39.86
2019-05-16T18:14:13.846Z,39.85
2019-05-16T18:16:52.631Z,39.87
2019-05-16T18:19:07.912Z,39.91
2019-05-16T18:21:33.808Z,39.98
2019-05-16T18:23:59.803Z,40.00
2019-05-16T18:26:26.871Z,40.20
2019-05-16T18:28:52.853Z,40.24
2019-05-16T18:31:18.824Z,40.48
2019-05-16T18:33:44.688Z,40.50
2019-05-16T18:36:10.659Z,40.52
2019-05-16T18:38:37.289Z,40.52
2019-05-16T18:41:03.411Z,40.59
2019-05-16T18:43:29.446Z,40.62
2019-05-16T18:45:56.650Z,40.68
2019-05-16T18:48:22.766Z,40.74
2019-05-16T18:50:48.679Z,40.89
2019-05-16T18:53:14.514Z,40.83
2019-05-16T18:55:40.473Z,40.84
2019-05-16T18:58:08.592Z,40.93
2019-05-16T19:00:34.340Z,41.05
2019-05-16T19:03:00.280Z,41.04
2019-05-16T19:05:26.599Z,41.03
2019-05-16T19:07:52.628Z,41.14
2019-05-16T19:10:18.602Z,41.13
2019-05-16T19:12:44.558Z,41.20
2019-05-16T19:15:10.783Z,41.30
2019-05-16T19:17:36.785Z,41.47
2019-05-16T19:20:06.446Z,41.42
2019-05-16T19:22:31.662Z,41.56
2019-05-16T19:24:57.559Z,41.40
2019-05-16T19:27:23.490Z,41.63
2019-05-16T19:29:49.545Z,41.80
2019-05-16T19:32:17.204Z,41.83
2019-05-16T19:34:43.200Z,41.83
2019-05-16T19:37:09.223Z,42.04
2019-05-16T19:39:37.031Z,42.00
2019-05-16T19:42:03.056Z,42.17
2019-05-16T19:44:28.913Z,42.15
2019-05-16T19:46:57.174Z,42.13
2019-05-16T19:49:22.454Z,42.08
2019-05-16T19:51:49.102Z,42.27
2019-05-16T19:54:16.379Z,42.39
2019-05-16T19:56:42.343Z,42.31
2019-05-16T19:59:08.401Z,42.66
2019-05-16T20:01:36.750Z,42.58
2019-05-16T20:04:02.171Z,42.51
2019-05-16T20:06:28.183Z,42.64
2019-05-16T20:08:54.179Z,42.70
2019-05-16T20:11:20.037Z,42.61
2019-05-16T20:13:47.384Z,42.63
2019-05-16T20:16:13.446Z,42.79
2019-05-16T20:18:39.305Z,42.70
2019-05-16T20:21:05.545Z,42.74
2019-05-16T20:23:31.430Z,42.81
2019-05-16T20:25:57.417Z,42.86
2019-05-16T20:28:23.450Z,42.82
2019-05-16T20:30:49.330Z,42.91
2019-05-16T20:33:17.661Z,42.97
2019-05-16T20:35:43.128Z,43.08
2019-05-16T20:38:09.002Z,43.15
2019-05-16T20:40:37.216Z,43.26
2019-05-16T20:43:02.770Z,43.30
2019-05-16T20:45:28.750Z,43.35
2019-05-16T20:48:07.320Z,43.39
2019-05-16T20:50:22.655Z,43.33
2019-05-16T20:52:48.741Z,43.35
2019-05-16T20:55:14.760Z,43.45
2019-05-16T20:57:40.824Z,43.51
2019-05-16T21:00:06.998Z,43.46
2019-05-16T21:02:32.830Z,43.54
2019-05-16T21:04:58.872Z,43.57
2019-05-16T21:07:26.455Z,43.69
2019-05-16T21:09:52.433Z,43.69
2019-05-16T21:12:18.409Z,43.65
2019-05-16T21:14:44.379Z,43.78
2019-05-16T21:17:10.216Z,43.90
2019-05-16T21:19:38.983Z,44.04
2019-05-16T21:22:04.158Z,43.90
2019-05-16T21:24:30.117Z,44.03
2019-05-16T21:26:56.133Z,44.13
2019-05-16T21:29:22.081Z,44.24
2019-05-16T21:31:48.030Z,44.18
2019-05-16T21:34:16.554Z,44.39
2019-05-16T21:36:41.694Z,44.50
2019-05-16T21:39:08.602Z,44.64
2019-05-16T21:41:36.628Z,44.56
2019-05-16T21:44:02.619Z,44.57
2019-05-16T21:46:28.563Z,44.66
2019-05-16T21:48:56.594Z,44.51
2019-05-16T21:51:22.336Z,44.51
2019-05-16T21:53:48.175Z,44.60
2019-05-16T21:56:17.507Z,44.63
2019-05-16T21:58:42.868Z,44.83
2019-05-16T22:01:11.036Z,44.79
2019-05-16T22:03:37.101Z,44.88
2019-05-16T22:06:03.081Z,44.95
2019-05-16T22:08:28.916Z,45.05
2019-05-16T22:10:57.128Z,45.20
2019-05-16T22:13:22.671Z,45.22
2019-05-16T22:15:48.648Z,45.12
2019-05-16T22:18:16.614Z,45.00
2019-05-16T22:20:42.551Z,44.99
2019-05-16T22:23:08.528Z,45.20
2019-05-16T22:25:34.571Z,45.15
2019-05-16T22:28:00.650Z,45.15
2019-05-16T22:30:27.254Z,45.20
2019-05-16T22:32:53.496Z,45.31
2019-05-16T22:35:19.508Z,45.22
2019-05-16T22:37:53.875Z,45.26
2019-05-16T22:40:14.258Z,45.24
2019-05-16T22:42:40.139Z,45.28
2019-05-16T22:45:08.905Z,45.17
2019-05-16T22:47:37.184Z,45.21
2019-05-16T22:50:04.007Z,45.37
2019-05-16T22:52:29.988Z,45.39
2019-05-16T22:54:56.705Z,45.45
2019-05-16T22:57:22.622Z,45.48
2019-05-16T22:59:48.489Z,45.52
2019-05-16T23:02:16.684Z,45.49
2019-05-16T23:04:42.265Z,45.50
2019-05-16T23:07:08.617Z,45.53
2019-05-16T23:09:36.505Z,45.59
2019-05-16T23:12:02.571Z,45.79
2019-05-16T23:14:28.429Z,45.79
2019-05-16T23:16:54.392Z,45.79
2019-05-16T23:19:20.264Z,45.87
2019-05-16T23:21:47.510Z,45.99
2019-05-16T23:24:13.673Z,45.90
2019-05-16T23:26:39.838Z,45.88
2019-05-16T23:29:05.790Z,45.86
2019-05-16T23:31:31.724Z,45.91
2019-05-16T23:33:57.692Z,45.90
2019-05-16T23:36:23.554Z,45.95
2019-05-16T23:38:49.629Z,46.01
2019-05-16T23:41:17.284Z,46.09
2019-05-16T23:43:43.267Z,46.09
2019-05-16T23:46:09.394Z,46.22
2019-05-16T23:48:36.521Z,46.21
2019-05-16T23:51:02.639Z,46.24
2019-05-16T23:53:28.850Z,46.27
2019-05-16T23:55:56.750Z,46.42
2019-05-16T23:58:22.399Z,46.34
